sensor_id;sensor_type;location;lat;lon;timestamp;pressure;altitude;pressure_sealevel;temperature;humidity
73429;BME280;61643;49.564;17.412;2023-04-07T00:01:14;98225.88;;;1.43;99.25
73429;BME280;61643;49.564;17.412;2023-04-07T00:03:40;98217.09;;;1.43;99.54
73429;BME280;61643;49.564;17.412;2023-04-07T00:06:06;98218.94;;;1.49;98.65
73429;BME280;61643;49.564;17.412;2023-04-07T00:08:32;98221.19;;;1.52;98.60
73429;BME280;61643;49.564;17.412;2023-04-07T00:10:58;98207.94;;;1.52;98.49
73429;BME280;61643;49.564;17.412;2023-04-07T00:13:24;98217.34;;;1.55;98.90
73429;BME280;61643;49.564;17.412;2023-04-07T00:15:50;98217.34;;;1.55;99.13
73429;BME280;61643;49.564;17.412;2023-04-07T00:18:16;98205.91;;;1.54;98.92
73429;BME280;61643;49.564;17.412;2023-04-07T00:20:42;98203.88;;;1.56;99.20
73429;BME280;61643;49.564;17.412;2023-04-07T00:23:08;98205.69;;;1.56;99.76
73429;BME280;61643;49.564;17.412;2023-04-07T00:25:34;98204.69;;;1.57;99.61
73429;BME280;61643;49.564;17.412;2023-04-07T00:28:00;98211.41;;;1.53;99.65
73429;BME280;61643;49.564;17.412;2023-04-07T00:30:26;98206.91;;;1.53;99.78
73429;BME280;61643;49.564;17.412;2023-04-07T00:32:52;98203.84;;;1.49;99.83
73429;BME280;61643;49.564;17.412;2023-04-07T00:35:18;98207.50;;;1.48;99.83
73429;BME280;61643;49.564;17.412;2023-04-07T00:37:44;98205.09;;;1.54;99.66
73429;BME280;61643;49.564;17.412;2023-04-07T00:40:10;98202.03;;;1.50;100.00
73429;BME280;61643;49.564;17.412;2023-04-07T00:42:36;98198.16;;;1.53;100.00
73429;BME280;61643;49.564;17.412;2023-04-07T00:45:03;98200.19;;;1.57;100.00
73429;BME280;61643;49.564;17.412;2023-04-07T00:47:29;98197.53;;;1.51;100.00
73429;BME280;61643;49.564;17.412;2023-04-07T00:49:55;98195.31;;;1.54;100.00
73429;BME280;61643;49.564;17.412;2023-04-07T00:52:21;98191.66;;;1.55;100.00
73429;BME280;61643;49.564;17.412;2023-04-07T00:54:54;98194.28;;;1.55;100.00
73429;BME280;61643;49.564;17.412;2023-04-07T00:57:21;98196.31;;;1.53;100.00
73429;BME280;61643;49.564;17.412;2023-04-07T00:59:49;98186.94;;;1.57;100.00
73429;BME280;61643;49.564;17.412;2023-04-07T01:02:31;98177.16;;;1.64;100.00
73429;BME280;61643;49.564;17.412;2023-04-07T01:05:20;98180.44;;;1.66;100.00
73429;BME280;61643;49.564;17.412;2023-04-07T01:10:36;98173.09;;;1.62;100.00
73429;BME280;61643;49.564;17.412;2023-04-07T01:13:27;98173.50;;;1.65;100.00
73429;BME280;61643;49.564;17.412;2023-04-07T01:15:57;98173.09;;;1.62;100.00
73429;BME280;61643;49.564;17.412;2023-04-07T01:18:30;98171.88;;;1.71;100.00
73429;BME280;61643;49.564;17.412;2023-04-07T01:21:02;98168.38;;;1.70;100.00
73429;BME280;61643;49.564;17.412;2023-04-07T01:26:25;98170.03;;;1.65;100.00
73429;BME280;61643;49.564;17.412;2023-04-07T01:29:25;98174.69;;;1.49;100.00
73429;BME280;61643;49.564;17.412;2023-04-07T01:31:53;98167.38;;;1.58;100.00
73429;BME280;61643;49.564;17.412;2023-04-07T01:34:21;98164.31;;;1.55;100.00
73429;BME280;61643;49.564;17.412;2023-04-07T01:36:49;98157.75;;;1.51;100.00
73429;BME280;61643;49.564;17.412;2023-04-07T01:39:16;98159.81;;;1.55;100.00
73429;BME280;61643;49.564;17.412;2023-04-07T01:41:43;98175.94;;;1.60;100.00
73429;BME280;61643;49.564;17.412;2023-04-07T01:44:10;98172.03;;;1.56;100.00
73429;BME280;61643;49.564;17.412;2023-04-07T01:46:37;98158.59;;;1.58;100.00
73429;BME280;61643;49.564;17.412;2023-04-07T01:49:03;98159.16;;;1.46;100.00
73429;BME280;61643;49.564;17.412;2023-04-07T01:51:31;98154.03;;;1.32;100.00
73429;BME280;61643;49.564;17.412;2023-04-07T01:53:58;98156.84;;;1.17;100.00
73429;BME280;61643;49.564;17.412;2023-04-07T01:56:26;98144.41;;;1.18;100.00
73429;BME280;61643;49.564;17.412;2023-04-07T01:58:52;98147.19;;;1.03;100.00
73429;BME280;61643;49.564;17.412;2023-04-07T02:01:18;98146.78;;;0.99;100.00
73429;BME280;61643;49.564;17.412;2023-04-07T02:06:33;98145.97;;;0.99;100.00
73429;BME280;61643;49.564;17.412;2023-04-07T02:09:06;98146.63;;;1.08;100.00
73429;BME280;61643;49.564;17.412;2023-04-07T02:11:33;98141.47;;;0.99;100.00
73429;BME280;61643;49.564;17.412;2023-04-07T02:14:01;98146.50;;;0.88;100.00
73429;BME280;61643;49.564;17.412;2023-04-07T02:16:30;98146.09;;;0.84;100.00
73429;BME280;61643;49.564;17.412;2023-04-07T02:18:56;98140.41;;;0.87;100.00
73429;BME280;61643;49.564;17.412;2023-04-07T02:21:24;98141.44;;;0.86;100.00
73429;BME280;61643;49.564;17.412;2023-04-07T02:23:51;98143.22;;;0.79;100.00
73429;BME280;61643;49.564;17.412;2023-04-07T02:26:17;98139.97;;;0.84;100.00
73429;BME280;61643;49.564;17.412;2023-04-07T02:28:43;98134.13;;;0.95;100.00
73429;BME280;61643;49.564;17.412;2023-04-07T02:31:09;98135.56;;;0.97;100.00
73429;BME280;61643;49.564;17.412;2023-04-07T02:33:35;98139.06;;;1.05;100.00
73429;BME280;61643;49.564;17.412;2023-04-07T02:36:01;98140.69;;;1.12;100.00
73429;BME280;61643;49.564;17.412;2023-04-07T02:38:27;98135.22;;;1.14;100.00
73429;BME280;61643;49.564;17.412;2023-04-07T02:40:53;98144.53;;;1.03;100.00
73429;BME280;61643;49.564;17.412;2023-04-07T02:43:20;98144.81;;;1.15;100.00
73429;BME280;61643;49.564;17.412;2023-04-07T02:45:46;98134.81;;;1.17;100.00
73429;BME280;61643;49.564;17.412;2023-04-07T02:48:12;98134.41;;;1.20;100.00
73429;BME280;61643;49.564;17.412;2023-04-07T02:50:38;98130.31;;;1.17;100.00
73429;BME280;61643;49.564;17.412;2023-04-07T02:53:04;98127.09;;;1.22;100.00
73429;BME280;61643;49.564;17.412;2023-04-07T02:55:30;98137.47;;;1.23;100.00
73429;BME280;61643;49.564;17.412;2023-04-07T02:57:56;98128.50;;;1.24;100.00
73429;BME280;61643;49.564;17.412;2023-04-07T03:00:22;98125.03;;;1.24;100.00
73429;BME280;61643;49.564;17.412;2023-04-07T03:02:48;98133.22;;;1.22;100.00
73429;BME280;61643;49.564;17.412;2023-04-07T03:05:13;98131.81;;;1.26;100.00
73429;BME280;61643;49.564;17.412;2023-04-07T03:07:40;98128.94;;;1.28;100.00
73429;BME280;61643;49.564;17.412;2023-04-07T03:10:06;98123.44;;;1.29;100.00
73429;BME280;61643;49.564;17.412;2023-04-07T03:12:32;98124.22;;;1.23;100.00
73429;BME280;61643;49.564;17.412;2023-04-07T03:14:58;98122.59;;;1.22;100.00
73429;BME280;61643;49.564;17.412;2023-04-07T03:17:24;98129.75;;;1.28;100.00
73429;BME280;61643;49.564;17.412;2023-04-07T03:19:50;98126.03;;;1.16;100.00
73429;BME280;61643;49.564;17.412;2023-04-07T03:22:16;98125.44;;;1.21;100.00
73429;BME280;61643;49.564;17.412;2023-04-07T03:24:42;98124.22;;;1.23;100.00
73429;BME280;61643;49.564;17.412;2023-04-07T03:27:08;98121.72;;;1.09;100.00
73429;BME280;61643;49.564;17.412;2023-04-07T03:29:34;98116.63;;;1.07;100.00
73429;BME280;61643;49.564;17.412;2023-04-07T03:32:01;98116.63;;;1.01;100.00
73429;BME280;61643;49.564;17.412;2023-04-07T03:34:26;98122.13;;;1.12;100.00
73429;BME280;61643;49.564;17.412;2023-04-07T03:36:52;98118.50;;;1.20;100.00
73429;BME280;61643;49.564;17.412;2023-04-07T03:39:18;98125.47;;;1.27;100.00
73429;BME280;61643;49.564;17.412;2023-04-07T03:41:45;98125.69;;;1.26;100.00
73429;BME280;61643;49.564;17.412;2023-04-07T03:44:12;98118.53;;;1.26;100.00
73429;BME280;61643;49.564;17.412;2023-04-07T03:46:37;98113.19;;;1.20;100.00
73429;BME280;61643;49.564;17.412;2023-04-07T03:49:03;98116.06;;;1.25;100.00
73429;BME280;61643;49.564;17.412;2023-04-07T03:51:29;98114.03;;;1.27;100.00
73429;BME280;61643;49.564;17.412;2023-04-07T03:53:55;98106.47;;;1.24;100.00
73429;BME280;61643;49.564;17.412;2023-04-07T03:56:21;98102.22;;;1.23;100.00
73429;BME280;61643;49.564;17.412;2023-04-07T03:58:47;98102.19;;;1.16;100.00
73429;BME280;61643;49.564;17.412;2023-04-07T04:01:14;98107.47;;;1.10;100.00
73429;BME280;61643;49.564;17.412;2023-04-07T04:03:40;98104.78;;;1.03;100.00
73429;BME280;61643;49.564;17.412;2023-04-07T04:06:06;98099.91;;;1.07;100.00
73429;BME280;61643;49.564;17.412;2023-04-07T04:08:32;98112.78;;;1.16;100.00
73429;BME280;61643;49.564;17.412;2023-04-07T04:10:58;98117.50;;;1.21;100.00
73429;BME280;61643;49.564;17.412;2023-04-07T04:13:24;98116.66;;;1.14;100.00
73429;BME280;61643;49.564;17.412;2023-04-07T04:15:50;98114.63;;;1.16;100.00
73429;BME280;61643;49.564;17.412;2023-04-07T04:18:16;98117.66;;;1.06;100.00
73429;BME280;61643;49.564;17.412;2023-04-07T04:20:42;98115.63;;;1.08;100.00
73429;BME280;61643;49.564;17.412;2023-04-07T04:23:08;98115.22;;;1.11;100.00
73429;BME280;61643;49.564;17.412;2023-04-07T04:25:34;98116.06;;;1.18;100.00
73429;BME280;61643;49.564;17.412;2023-04-07T04:28:00;98126.44;;;1.20;100.00
73429;BME280;61643;49.564;17.412;2023-04-07T04:30:26;98131.16;;;1.18;100.00
73429;BME280;61643;49.564;17.412;2023-04-07T04:32:52;98123.19;;;1.11;100.00
73429;BME280;61643;49.564;17.412;2023-04-07T04:35:18;98131.34;;;1.16;100.00
73429;BME280;61643;49.564;17.412;2023-04-07T04:37:44;98132.16;;;1.17;100.00
73429;BME280;61643;49.564;17.412;2023-04-07T04:40:10;98126.25;;;1.15;100.00
73429;BME280;61643;49.564;17.412;2023-04-07T04:42:36;98129.91;;;1.20;100.00
73429;BME280;61643;49.564;17.412;2023-04-07T04:45:03;98126.84;;;1.17;100.00
73429;BME280;61643;49.564;17.412;2023-04-07T04:47:29;98121.78;;;1.22;100.00
73429;BME280;61643;49.564;17.412;2023-04-07T04:49:55;98123.84;;;1.26;100.00
73429;BME280;61643;49.564;17.412;2023-04-07T04:52:21;98112.59;;;1.18;100.00
73429;BME280;61643;49.564;17.412;2023-04-07T04:54:47;98108.88;;;1.06;100.00
73429;BME280;61643;49.564;17.412;2023-04-07T04:57:13;98115.25;;;1.18;100.00
73429;BME280;61643;49.564;17.412;2023-04-07T04:59:39;98109.13;;;1.24;100.00
73429;BME280;61643;49.564;17.412;2023-04-07T05:02:05;98116.69;;;1.27;100.00
73429;BME280;61643;49.564;17.412;2023-04-07T05:04:31;98112.44;;;1.32;100.00
73429;BME280;61643;49.564;17.412;2023-04-07T05:06:57;98119.16;;;1.28;100.00
73429;BME280;61643;49.564;17.412;2023-04-07T05:09:22;98115.06;;;1.26;100.00
73429;BME280;61643;49.564;17.412;2023-04-07T05:11:49;98117.72;;;1.32;100.00
73429;BME280;61643;49.564;17.412;2023-04-07T05:14:15;98112.22;;;1.34;100.00
73429;BME280;61643;49.564;17.412;2023-04-07T05:16:41;98113.44;;;1.31;100.00
73429;BME280;61643;49.564;17.412;2023-04-07T05:19:07;98116.31;;;1.30;100.00
73429;BME280;61643;49.564;17.412;2023-04-07T05:21:33;98105.47;;;1.31;100.00
73429;BME280;61643;49.564;17.412;2023-04-07T05:23:59;98106.31;;;1.38;100.00
73429;BME280;61643;49.564;17.412;2023-04-07T05:26:26;98116.72;;;1.33;100.00
73429;BME280;61643;49.564;17.412;2023-04-07T05:28:52;98116.72;;;1.40;100.00
73429;BME280;61643;49.564;17.412;2023-04-07T05:31:17;98115.09;;;1.45;100.00
73429;BME280;61643;49.564;17.412;2023-04-07T05:33:43;98114.09;;;1.53;100.00
73429;BME280;61643;49.564;17.412;2023-04-07T05:36:10;98119.81;;;1.50;100.00
73429;BME280;61643;49.564;17.412;2023-04-07T05:38:36;98129.00;;;1.54;100.00
73429;BME280;61643;49.564;17.412;2023-04-07T05:41:01;98123.09;;;1.59;100.00
73429;BME280;61643;49.564;17.412;2023-04-07T05:43:27;98119.00;;;1.56;100.00
73429;BME280;61643;49.564;17.412;2023-04-07T05:45:53;98121.03;;;1.61;100.00
73429;BME280;61643;49.564;17.412;2023-04-07T05:48:19;98134.53;;;1.59;100.00
73429;BME280;61643;49.564;17.412;2023-04-07T05:50:45;98122.69;;;1.62;100.00
73429;BME280;61643;49.564;17.412;2023-04-07T05:53:11;98132.88;;;1.65;100.00
73429;BME280;61643;49.564;17.412;2023-04-07T05:55:37;98129.19;;;1.53;100.00
73429;BME280;61643;49.564;17.412;2023-04-07T05:58:03;98137.78;;;1.55;100.00
73429;BME280;61643;49.564;17.412;2023-04-07T06:00:29;98134.91;;;1.49;100.00
73429;BME280;61643;49.564;17.412;2023-04-07T06:02:55;98134.91;;;1.56;100.00
73429;BME280;61643;49.564;17.412;2023-04-07T06:05:21;98138.59;;;1.55;100.00
73429;BME280;61643;49.564;17.412;2023-04-07T06:07:47;98134.53;;;1.59;100.00
73429;BME280;61643;49.564;17.412;2023-04-07T06:10:14;98122.69;;;1.62;100.00
73429;BME280;61643;49.564;17.412;2023-04-07T06:12:40;98118.22;;;1.62;100.00
73429;BME280;61643;49.564;17.412;2023-04-07T06:15:06;98118.63;;;1.59;100.00
73429;BME280;61643;49.564;17.412;2023-04-07T06:17:32;98129.59;;;1.49;100.00
73429;BME280;61643;49.564;17.412;2023-04-07T06:19:58;98126.56;;;1.59;100.00
73429;BME280;61643;49.564;17.412;2023-04-07T06:22:24;98124.94;;;1.65;100.00
73429;BME280;61643;49.564;17.412;2023-04-07T06:24:50;98133.66;;;1.45;100.00
73429;BME280;61643;49.564;17.412;2023-04-07T06:27:16;98123.69;;;1.61;100.00
73429;BME280;61643;49.564;17.412;2023-04-07T06:29:43;98121.47;;;1.58;100.00
73429;BME280;61643;49.564;17.412;2023-04-07T06:32:09;98120.84;;;1.62;100.00
73429;BME280;61643;49.564;17.412;2023-04-07T06:34:35;98123.50;;;1.75;100.00
73429;BME280;61643;49.564;17.412;2023-04-07T06:37:01;98121.88;;;1.55;100.00
73429;BME280;61643;49.564;17.412;2023-04-07T06:39:29;98127.94;;;1.48;100.00
73429;BME280;61643;49.564;17.412;2023-04-07T06:41:55;98119.81;;;1.57;100.00
73429;BME280;61643;49.564;17.412;2023-04-07T06:44:21;98121.63;;;1.49;100.00
73429;BME280;61643;49.564;17.412;2023-04-07T06:46:47;98114.31;;;1.52;100.00
73429;BME280;61643;49.564;17.412;2023-04-07T06:49:20;98120.63;;;1.44;100.00
73429;BME280;61643;49.564;17.412;2023-04-07T06:51:46;98134.47;;;1.39;100.00
73429;BME280;61643;49.564;17.412;2023-04-07T06:54:12;98129.78;;;1.41;100.00
73429;BME280;61643;49.564;17.412;2023-04-07T06:56:40;98140.19;;;1.43;100.00
73429;BME280;61643;49.564;17.412;2023-04-07T06:59:06;98131.22;;;1.51;100.00
73429;BME280;61643;49.564;17.412;2023-04-07T07:01:32;98136.31;;;1.45;100.00
73429;BME280;61643;49.564;17.412;2023-04-07T07:03:59;98142.84;;;1.43;100.00
73429;BME280;61643;49.564;17.412;2023-04-07T07:06:28;98130.81;;;1.40;100.00
73429;BME280;61643;49.564;17.412;2023-04-07T07:08:53;98135.31;;;1.53;100.00
73429;BME280;61643;49.564;17.412;2023-04-07T07:11:19;98121.69;;;1.63;100.00
73429;BME280;61643;49.564;17.412;2023-04-07T07:13:49;98130.66;;;1.62;100.00
73429;BME280;61643;49.564;17.412;2023-04-07T07:16:23;98129.63;;;1.63;100.00
73429;BME280;61643;49.564;17.412;2023-04-07T07:18:49;98136.13;;;1.54;100.00
73429;BME280;61643;49.564;17.412;2023-04-07T07:21:17;98131.84;;;1.53;100.00
73429;BME280;61643;49.564;17.412;2023-04-07T07:23:43;98145.91;;;1.46;100.00
73429;BME280;61643;49.564;17.412;2023-04-07T07:26:09;98129.59;;;1.43;100.00
73429;BME280;61643;49.564;17.412;2023-04-07T07:28:35;98140.63;;;1.53;100.00
73429;BME280;61643;49.564;17.412;2023-04-07T07:31:10;98138.97;;;1.52;100.00
73429;BME280;61643;49.564;17.412;2023-04-07T07:33:39;98131.47;;;1.69;100.00
73429;BME280;61643;49.564;17.412;2023-04-07T07:36:06;98135.34;;;1.66;100.00
73429;BME280;61643;49.564;17.412;2023-04-07T07:38:32;98135.75;;;1.76;100.00
73429;BME280;61643;49.564;17.412;2023-04-07T07:40:59;98141.69;;;1.85;100.00
73429;BME280;61643;49.564;17.412;2023-04-07T07:43:25;98136.56;;;1.70;100.00
73429;BME280;61643;49.564;17.412;2023-04-07T07:45:51;98138.00;;;1.66;100.00
73429;BME280;61643;49.564;17.412;2023-04-07T07:48:17;98145.34;;;1.64;100.00
73429;BME280;61643;49.564;17.412;2023-04-07T07:50:43;98149.03;;;1.76;100.00
73429;BME280;61643;49.564;17.412;2023-04-07T07:53:09;98145.78;;;1.81;100.00
73429;BME280;61643;49.564;17.412;2023-04-07T07:55:35;98149.63;;;1.85;100.00
73429;BME280;61643;49.564;17.412;2023-04-07T07:58:01;98146.97;;;1.85;100.00
73429;BME280;61643;49.564;17.412;2023-04-07T08:00:27;98144.97;;;1.93;100.00
73429;BME280;61643;49.564;17.412;2023-04-07T08:02:53;98148.44;;;1.81;100.00
73429;BME280;61643;49.564;17.412;2023-04-07T08:05:20;98152.28;;;1.85;100.00
73429;BME280;61643;49.564;17.412;2023-04-07T08:07:46;98151.09;;;1.81;100.00
73429;BME280;61643;49.564;17.412;2023-04-07T08:10:12;98152.09;;;1.73;100.00
73429;BME280;61643;49.564;17.412;2023-04-07T08:12:38;98145.75;;;1.68;100.00
73429;BME280;61643;49.564;17.412;2023-04-07T08:15:04;98149.22;;;1.62;100.00
73429;BME280;61643;49.564;17.412;2023-04-07T08:17:32;98148.84;;;1.84;100.00
73429;BME280;61643;49.564;17.412;2023-04-07T08:19:59;98159.06;;;1.81;100.00
73429;BME280;61643;49.564;17.412;2023-04-07T08:22:25;98154.34;;;1.76;100.00
73429;BME280;61643;49.564;17.412;2023-04-07T08:24:51;98156.81;;;1.84;100.00
73429;BME280;61643;49.564;17.412;2023-04-07T08:27:17;98161.06;;;1.92;100.00
73429;BME280;61643;49.564;17.412;2023-04-07T08:29:43;98154.56;;;1.94;100.00
73429;BME280;61643;49.564;17.412;2023-04-07T08:32:09;98145.59;;;2.02;100.00
73429;BME280;61643;49.564;17.412;2023-04-07T08:34:35;98148.41;;;2.14;100.00
73429;BME280;61643;49.564;17.412;2023-04-07T08:37:01;98151.69;;;2.22;100.00
73429;BME280;61643;49.564;17.412;2023-04-07T08:39:27;98153.72;;;2.33;100.00
73429;BME280;61643;49.564;17.412;2023-04-07T08:41:55;98156.59;;;2.45;100.00
73429;BME280;61643;49.564;17.412;2023-04-07T08:44:24;98154.53;;;2.60;100.00
73429;BME280;61643;49.564;17.412;2023-04-07T08:46:55;98157.34;;;2.65;100.00
73429;BME280;61643;49.564;17.412;2023-04-07T08:49:23;98158.97;;;2.73;100.00
73429;BME280;61643;49.564;17.412;2023-04-07T08:51:52;98155.94;;;2.69;100.00
73429;BME280;61643;49.564;17.412;2023-04-07T08:54:19;98154.09;;;2.63;100.00
73429;BME280;61643;49.564;17.412;2023-04-07T08:56:47;98161.88;;;2.71;100.00
73429;BME280;61643;49.564;17.412;2023-04-07T08:59:14;98158.56;;;2.76;100.00
73429;BME280;61643;49.564;17.412;2023-04-07T09:01:40;98155.72;;;2.77;100.00
73429;BME280;61643;49.564;17.412;2023-04-07T09:04:09;98154.47;;;2.80;100.00
73429;BME280;61643;49.564;17.412;2023-04-07T09:06:36;98156.75;;;2.70;100.00
73429;BME280;61643;49.564;17.412;2023-04-07T09:09:03;98149.78;;;2.82;100.00
73429;BME280;61643;49.564;17.412;2023-04-07T09:11:35;98155.28;;;2.80;100.00
73429;BME280;61643;49.564;17.412;2023-04-07T09:14:01;98151.63;;;2.81;100.00
73429;BME280;61643;49.564;17.412;2023-04-07T09:16:28;98152.66;;;2.74;100.00
73429;BME280;61643;49.564;17.412;2023-04-07T09:18:56;98146.69;;;2.85;100.00
73429;BME280;61643;49.564;17.412;2023-04-07T09:21:22;98147.91;;;2.89;100.00
73429;BME280;61643;49.564;17.412;2023-04-07T09:23:48;98149.53;;;2.90;100.00
73429;BME280;61643;49.564;17.412;2023-04-07T09:31:23;98131.56;;;2.79;100.00
73429;BME280;61643;49.564;17.412;2023-04-07T09:33:52;98134.06;;;2.67;100.00
73429;BME280;61643;49.564;17.412;2023-04-07T09:36:18;98132.63;;;2.71;100.00
73429;BME280;61643;49.564;17.412;2023-04-07T09:38:44;98135.84;;;2.86;100.00
73429;BME280;61643;49.564;17.412;2023-04-07T09:41:15;98129.97;;;2.71;100.00
73429;BME280;61643;49.564;17.412;2023-04-07T09:43:43;98132.22;;;2.74;100.00
73429;BME280;61643;49.564;17.412;2023-04-07T09:46:15;98139.13;;;2.88;100.00
73429;BME280;61643;49.564;17.412;2023-04-07T09:48:43;98135.00;;;2.92;100.00
73429;BME280;61643;49.564;17.412;2023-04-07T09:51:16;98131.06;;;3.08;100.00
73429;BME280;61643;49.564;17.412;2023-04-07T09:56:11;98128.47;;;2.88;100.00
73429;BME280;61643;49.564;17.412;2023-04-07T09:58:37;98138.78;;;3.16;100.00
73429;BME280;61643;49.564;17.412;2023-04-07T10:01:07;98143.66;;;3.26;100.00
73429;BME280;61643;49.564;17.412;2023-04-07T10:03:37;98150.56;;;3.33;100.00
73429;BME280;61643;49.564;17.412;2023-04-07T10:06:04;98146.56;;;3.18;100.00
73429;BME280;61643;49.564;17.412;2023-04-07T10:08:33;98147.75;;;3.28;100.00
73429;BME280;61643;49.564;17.412;2023-04-07T10:11:03;98145.72;;;3.24;100.00
73429;BME280;61643;49.564;17.412;2023-04-07T10:13:34;98149.63;;;3.15;100.00
73429;BME280;61643;49.564;17.412;2023-04-07T10:16:05;98148.69;;;3.03;100.00
73429;BME280;61643;49.564;17.412;2023-04-07T10:18:34;98142.97;;;2.99;100.00
73429;BME280;61643;49.564;17.412;2023-04-07T10:21:03;98151.31;;;3.09;100.00
73429;BME280;61643;49.564;17.412;2023-04-07T10:26:34;98137.63;;;3.06;100.00
73429;BME280;61643;49.564;17.412;2023-04-07T10:29:05;98138.88;;;2.90;100.00
73429;BME280;61643;49.564;17.412;2023-04-07T10:31:35;98135.25;;;2.78;100.00
73429;BME280;61643;49.564;17.412;2023-04-07T10:34:01;98133.44;;;2.72;100.00
73429;BME280;61643;49.564;17.412;2023-04-07T10:36:28;98134.19;;;2.92;100.00
73429;BME280;61643;49.564;17.412;2023-04-07T10:41:37;98134.09;;;3.12;100.00
73429;BME280;61643;49.564;17.412;2023-04-07T10:44:05;98142.47;;;3.15;100.00
73429;BME280;61643;49.564;17.412;2023-04-07T10:49:17;98149.50;;;3.03;100.00
73429;BME280;61643;49.564;17.412;2023-04-07T10:51:43;98142.13;;;3.05;100.00
73429;BME280;61643;49.564;17.412;2023-04-07T10:57:17;98149.88;;;3.13;100.00
73429;BME280;61643;49.564;17.412;2023-04-07T11:02:39;98137.94;;;3.22;100.00
73429;BME280;61643;49.564;17.412;2023-04-07T11:05:06;98145.75;;;3.17;100.00
73429;BME280;61643;49.564;17.412;2023-04-07T11:07:42;98146.13;;;3.27;100.00
73429;BME280;61643;49.564;17.412;2023-04-07T11:10:12;98140.13;;;3.38;100.00
73429;BME280;61643;49.564;17.412;2023-04-07T11:12:41;98141.09;;;3.44;100.00
73429;BME280;61643;49.564;17.412;2023-04-07T11:15:18;98138.69;;;3.42;100.00
73429;BME280;61643;49.564;17.412;2023-04-07T11:17:44;98145.06;;;3.35;100.00
73429;BME280;61643;49.564;17.412;2023-04-07T11:20:10;98142.41;;;3.35;100.00
73429;BME280;61643;49.564;17.412;2023-04-07T11:22:36;98138.34;;;3.26;100.00
73429;BME280;61643;49.564;17.412;2023-04-07T11:25:02;98139.78;;;3.28;100.00
73429;BME280;61643;49.564;17.412;2023-04-07T11:27:28;98143.22;;;3.35;100.00
73429;BME280;61643;49.564;17.412;2023-04-07T11:29:55;98149.47;;;3.47;100.00
73429;BME280;61643;49.564;17.412;2023-04-07T11:32:22;98155.47;;;3.43;100.00
73429;BME280;61643;49.564;17.412;2023-04-07T11:34:54;98140.81;;;3.59;100.00
73429;BME280;61643;49.564;17.412;2023-04-07T11:37:23;98136.13;;;3.61;100.00
73429;BME280;61643;49.564;17.412;2023-04-07T11:39:53;98140.13;;;3.70;100.00
73429;BME280;61643;49.564;17.412;2023-04-07T11:42:38;98135.09;;;3.62;100.00
73429;BME280;61643;49.564;17.412;2023-04-07T11:45:14;98136.47;;;3.71;100.00
73429;BME280;61643;49.564;17.412;2023-04-07T11:47:41;98134.34;;;3.79;100.00
73429;BME280;61643;49.564;17.412;2023-04-07T11:50:07;98139.84;;;3.84;100.00
73429;BME280;61643;49.564;17.412;2023-04-07T11:52:43;98140.66;;;3.85;100.00
73429;BME280;61643;49.564;17.412;2023-04-07T11:55:19;98139.19;;;3.89;100.00
73429;BME280;61643;49.564;17.412;2023-04-07T11:57:47;98139.31;;;3.76;100.00
73429;BME280;61643;49.564;17.412;2023-04-07T12:00:13;98144.19;;;3.79;100.00
73429;BME280;61643;49.564;17.412;2023-04-07T12:02:40;98143.56;;;3.77;100.00
73429;BME280;61643;49.564;17.412;2023-04-07T12:05:07;98133.97;;;3.76;100.00
73429;BME280;61643;49.564;17.412;2023-04-07T12:07:38;98131.69;;;3.79;100.00
73429;BME280;61643;49.564;17.412;2023-04-07T12:12:46;98133.28;;;3.87;100.00
73429;BME280;61643;49.564;17.412;2023-04-07T12:15:12;98124.47;;;3.86;100.00
73429;BME280;61643;49.564;17.412;2023-04-07T12:17:43;98128.72;;;3.94;100.00
73429;BME280;61643;49.564;17.412;2023-04-07T12:20:10;98118.22;;;3.99;100.00
73429;BME280;61643;49.564;17.412;2023-04-07T12:22:36;98124.31;;;4.06;100.00
73429;BME280;61643;49.564;17.412;2023-04-07T12:25:02;98120.63;;;4.07;99.60
73429;BME280;61643;49.564;17.412;2023-04-07T12:27:28;98117.78;;;4.02;99.68
73429;BME280;61643;49.564;17.412;2023-04-07T12:29:54;98104.47;;;4.02;99.75
73429;BME280;61643;49.564;17.412;2023-04-07T12:32:20;98114.41;;;4.13;99.85
73429;BME280;61643;49.564;17.412;2023-04-07T12:34:46;98109.63;;;4.22;99.30
73429;BME280;61643;49.564;17.412;2023-04-07T12:37:13;98107.34;;;4.25;98.69
73429;BME280;61643;49.564;17.412;2023-04-07T12:39:39;98106.72;;;4.30;99.54
73429;BME280;61643;49.564;17.412;2023-04-07T12:42:05;98106.47;;;4.31;100.00
73429;BME280;61643;49.564;17.412;2023-04-07T12:44:33;98105.00;;;4.35;99.08
73429;BME280;61643;49.564;17.412;2023-04-07T12:46:59;98109.31;;;4.36;99.03
73429;BME280;61643;49.564;17.412;2023-04-07T12:49:25;98103.81;;;4.31;99.37
73429;BME280;61643;49.564;17.412;2023-04-07T12:51:51;98117.28;;;4.36;98.35
73429;BME280;61643;49.564;17.412;2023-04-07T12:54:17;98122.75;;;4.41;98.68
73429;BME280;61643;49.564;17.412;2023-04-07T12:56:43;98112.56;;;4.38;97.89
73429;BME280;61643;49.564;17.412;2023-04-07T12:59:09;98114.75;;;4.41;98.17
73429;BME280;61643;49.564;17.412;2023-04-07T13:01:35;98116.41;;;4.42;98.05
73429;BME280;61643;49.564;17.412;2023-04-07T13:04:01;98115.97;;;4.45;97.28
73429;BME280;61643;49.564;17.412;2023-04-07T13:06:28;98113.53;;;4.44;97.54
73429;BME280;61643;49.564;17.412;2023-04-07T13:08:53;98112.47;;;4.45;97.78
73429;BME280;61643;49.564;17.412;2023-04-07T13:11:21;98113.91;;;4.47;97.60
73429;BME280;61643;49.564;17.412;2023-04-07T13:13:47;98112.81;;;4.55;96.82
73429;BME280;61643;49.564;17.412;2023-04-07T13:16:13;98113.75;;;4.61;97.70
73429;BME280;61643;49.564;17.412;2023-04-07T13:18:39;98112.50;;;4.63;96.95
73429;BME280;61643;49.564;17.412;2023-04-07T13:21:05;98106.50;;;4.68;96.43
73429;BME280;61643;49.564;17.412;2023-04-07T13:23:31;98106.13;;;4.64;96.22